createdAt,value
2023-05-19T00:00:12.358Z,3.00
2023-05-19T00:02:44.441Z,2.67
2023-05-19T00:05:15.364Z,3.57
2023-05-19T00:07:46.727Z,3.10
2023-05-19T00:10:20.499Z,2.55
2023-05-19T00:12:52.433Z,3.10
2023-05-19T00:15:23.879Z,2.90
2023-05-19T00:17:55.871Z,2.40
2023-05-19T00:20:25.932Z,3.65
2023-05-19T00:22:55.919Z,3.35
2023-05-19T00:25:28.703Z,2.65
2023-05-19T00:27:59.396Z,2.63
2023-05-19T00:30:29.729Z,2.58
2023-05-19T00:32:59.789Z,2.58
2023-05-19T00:35:29.859Z,2.42
2023-05-19T00:37:59.639Z,2.60
2023-05-19T00:40:33.518Z,2.92
2023-05-19T00:43:05.697Z,2.63
2023-05-19T00:45:35.749Z,2.53
2023-05-19T00:48:05.610Z,2.75
2023-05-19T00:50:35.964Z,2.38
2023-05-19T00:53:06.031Z,2.83
2023-05-19T00:55:40.770Z,3.03
2023-05-19T00:58:12.225Z,2.55
2023-05-19T01:00:42.931Z,2.75
2023-05-19T01:03:15.496Z,2.80
2023-05-19T01:05:45.792Z,2.60
2023-05-19T01:08:16.646Z,2.97
2023-05-19T01:10:49.348Z,3.47
2023-05-19T01:13:19.549Z,3.15
2023-05-19T01:15:57.891Z,2.95
2023-05-19T01:18:32.460Z,3.28
2023-05-19T01:21:08.957Z,2.80
2023-05-19T01:23:42.291Z,2.75
2023-05-19T01:26:29.298Z,2.60
2023-05-19T01:29:13.970Z,2.88
2023-05-19T01:31:48.472Z,3.58
2023-05-19T01:34:19.491Z,2.63
2023-05-19T01:36:50.495Z,2.55
2023-05-19T01:39:20.585Z,2.83
2023-05-19T01:41:51.223Z,2.67
2023-05-19T01:44:22.451Z,3.35
2023-05-19T01:46:55.099Z,2.88
2023-05-19T01:49:25.409Z,2.75
2023-05-19T01:51:56.895Z,3.08
2023-05-19T01:54:26.645Z,2.78
2023-05-19T01:57:01.364Z,2.25
2023-05-19T01:59:39.858Z,2.17
2023-05-19T02:02:16.102Z,2.72
2023-05-19T02:04:48.104Z,2.47
2023-05-19T02:07:20.062Z,2.40
2023-05-19T02:09:54.612Z,2.42
2023-05-19T02:12:27.726Z,2.80
2023-05-19T02:17:30.426Z,2.65
2023-05-19T02:20:00.222Z,2.85
2023-05-19T02:22:30.117Z,2.13
2023-05-19T02:25:00.433Z,3.00
2023-05-19T02:27:30.368Z,2.58
2023-05-19T02:30:00.638Z,2.65
2023-05-19T02:32:33.189Z,2.70
2023-05-19T02:35:03.070Z,2.78
2023-05-19T02:37:33.033Z,3.15
2023-05-19T02:40:02.799Z,2.38
2023-05-19T02:42:32.785Z,2.30
2023-05-19T02:45:02.837Z,2.63
2023-05-19T02:47:37.059Z,3.20
2023-05-19T02:50:07.867Z,2.53
2023-05-19T02:52:37.645Z,2.88
2023-05-19T02:55:07.881Z,2.63
2023-05-19T02:57:38.082Z,3.20
2023-05-19T03:00:08.761Z,3.22
2023-05-19T03:02:41.810Z,2.40
2023-05-19T03:07:41.362Z,2.97
2023-05-19T03:10:11.793Z,3.03
2023-05-19T03:12:41.943Z,3.08
2023-05-19T03:15:13.258Z,2.60
2023-05-19T03:17:45.893Z,3.03
2023-05-19T03:20:15.974Z,3.20
2023-05-19T03:22:46.097Z,2.55
2023-05-19T03:25:16.036Z,2.30
2023-05-19T03:27:45.837Z,2.88
2023-05-19T03:30:16.297Z,2.38
2023-05-19T03:32:49.077Z,3.10
2023-05-19T03:35:19.230Z,3.25
2023-05-19T03:37:48.959Z,2.80
2023-05-19T03:40:19.167Z,3.17
2023-05-19T03:42:48.945Z,3.15
2023-05-19T03:45:19.017Z,2.75
2023-05-19T03:47:51.560Z,2.60
2023-05-19T03:50:21.708Z,2.63
2023-05-19T03:52:51.848Z,2.78
2023-05-19T03:55:22.409Z,2.58
2023-05-19T03:57:52.792Z,3.53
2023-05-19T04:00:22.565Z,2.90
2023-05-19T04:02:54.977Z,3.92
2023-05-19T04:05:24.785Z,2.97
2023-05-19T04:07:54.807Z,3.15
2023-05-19T04:10:24.809Z,2.83
2023-05-19T04:12:54.546Z,3.03
2023-05-19T04:15:24.546Z,3.22
2023-05-19T04:17:56.935Z,3.53
2023-05-19T04:20:26.745Z,3.30
2023-05-19T04:22:56.502Z,3.78
2023-05-19T04:25:28.673Z,3.03
2023-05-19T04:28:01.149Z,2.80
2023-05-19T04:30:31.484Z,3.22
2023-05-19T04:33:05.078Z,3.95
2023-05-19T04:35:35.198Z,4.18
2023-05-19T04:38:04.919Z,3.33
2023-05-19T04:40:35.071Z,2.85
2023-05-19T04:43:04.972Z,3.90
2023-05-19T04:45:37.865Z,2.75
2023-05-19T04:48:10.293Z,3.33
2023-05-19T04:50:42.531Z,2.85
2023-05-19T04:53:12.380Z,3.60
2023-05-19T04:55:42.371Z,2.83
2023-05-19T04:58:12.160Z,2.75
2023-05-19T05:00:42.240Z,3.20
2023-05-19T05:03:14.807Z,2.78
2023-05-19T05:05:44.976Z,3.50
2023-05-19T05:08:16.420Z,2.65
2023-05-19T05:10:46.140Z,3.35
2023-05-19T05:13:16.159Z,3.20
2023-05-19T05:15:46.360Z,3.30
2023-05-19T05:18:19.576Z,2.92
2023-05-19T05:20:49.908Z,3.72
2023-05-19T05:23:20.002Z,3.03
2023-05-19T05:25:50.344Z,3.30
2023-05-19T05:28:20.117Z,3.10
2023-05-19T05:30:50.556Z,3.53
2023-05-19T05:33:25.112Z,3.30
2023-05-19T05:35:55.033Z,3.38
2023-05-19T05:38:24.913Z,3.45
2023-05-19T05:40:54.956Z,3.33
2023-05-19T05:43:24.734Z,3.17
2023-05-19T05:45:54.866Z,3.05
2023-05-19T05:48:27.602Z,3.15
2023-05-19T05:50:59.774Z,3.38
2023-05-19T05:53:32.315Z,2.80
2023-05-19T05:56:02.713Z,2.95
2023-05-19T05:58:33.006Z,3.75
2023-05-19T06:01:03.433Z,3.47
2023-05-19T06:03:38.252Z,4.07
2023-05-19T06:06:08.635Z,3.63
2023-05-19T06:08:38.439Z,3.00
2023-05-19T06:11:09.666Z,3.78
2023-05-19T06:13:41.452Z,3.08
2023-05-19T06:16:11.755Z,3.45
2023-05-19T06:18:44.241Z,2.72
2023-05-19T06:21:14.054Z,3.03
2023-05-19T06:23:43.790Z,3.47
2023-05-19T06:26:13.828Z,3.00
2023-05-19T06:28:43.622Z,3.65
2023-05-19T06:31:13.445Z,3.05
2023-05-19T06:33:45.778Z,3.05
2023-05-19T06:36:19.942Z,3.47
2023-05-19T06:38:49.689Z,3.85
2023-05-19T06:41:19.744Z,3.17
2023-05-19T06:43:49.602Z,3.20
2023-05-19T06:46:19.576Z,3.03
2023-05-19T06:48:52.208Z,3.05
2023-05-19T06:51:22.843Z,2.92
2023-05-19T06:53:52.699Z,2.85
2023-05-19T06:56:23.132Z,2.90
2023-05-19T06:58:52.891Z,2.92
2023-05-19T07:01:22.768Z,2.95
2023-05-19T07:03:55.244Z,2.75
2023-05-19T07:06:25.129Z,2.50
2023-05-19T07:08:55.220Z,2.45
2023-05-19T07:11:25.422Z,3.03
2023-05-19T07:13:55.383Z,3.00
2023-05-19T07:16:25.260Z,3.50
2023-05-19T07:18:57.706Z,4.07
2023-05-19T07:21:27.794Z,3.13
2023-05-19T07:23:57.613Z,3.60
2023-05-19T07:26:27.590Z,3.13
2023-05-19T07:28:58.037Z,2.83
2023-05-19T07:31:27.840Z,2.55
2023-05-19T07:34:00.777Z,3.05
2023-05-19T07:36:30.820Z,2.75
2023-05-19T07:39:00.714Z,2.63
2023-05-19T07:41:30.517Z,3.53
2023-05-19T07:44:00.320Z,3.25
2023-05-19T07:46:30.277Z,3.05
2023-05-19T07:49:02.660Z,2.95
2023-05-19T07:51:32.533Z,2.80
2023-05-19T07:54:02.518Z,2.40
2023-05-19T07:56:32.655Z,2.67
2023-05-19T07:59:02.406Z,2.65
2023-05-19T08:01:32.824Z,3.10
2023-05-19T08:04:05.614Z,2.80
2023-05-19T08:06:35.504Z,2.30
2023-05-19T08:09:05.869Z,2.50
2023-05-19T08:11:35.833Z,2.53
2023-05-19T08:14:06.100Z,2.65
2023-05-19T08:19:11.384Z,2.92
2023-05-19T08:21:42.555Z,2.25
2023-05-19T08:24:12.559Z,2.40
2023-05-19T08:26:42.293Z,2.50
2023-05-19T08:29:14.717Z,2.38
2023-05-19T08:31:44.502Z,2.55
2023-05-19T08:34:16.962Z,2.75
2023-05-19T08:36:47.969Z,2.78
2023-05-19T08:39:19.921Z,2.80
2023-05-19T08:41:50.014Z,2.67
2023-05-19T08:44:19.991Z,2.55
2023-05-19T08:46:50.451Z,3.28
2023-05-19T08:49:27.498Z,2.45
2023-05-19T08:51:59.122Z,2.58
2023-05-19T08:54:34.647Z,2.45
2023-05-19T08:57:06.025Z,2.47
2023-05-19T08:59:36.873Z,2.55
2023-05-19T09:02:07.109Z,2.95
2023-05-19T09:04:39.946Z,2.45
2023-05-19T09:07:11.193Z,2.40
2023-05-19T09:09:44.089Z,2.00
2023-05-19T09:12:14.507Z,2.58
2023-05-19T09:14:44.993Z,2.38
2023-05-19T09:17:16.043Z,2.80
2023-05-19T09:19:49.847Z,2.33
2023-05-19T09:22:20.784Z,2.10
2023-05-19T09:24:50.898Z,1.77
2023-05-19T09:27:24.574Z,1.90
2023-05-19T09:29:54.405Z,2.33
2023-05-19T09:32:28.168Z,2.20
2023-05-19T09:35:00.869Z,2.85
2023-05-19T09:37:31.244Z,2.80
2023-05-19T09:40:01.246Z,2.30
2023-05-19T09:42:31.150Z,2.42
2023-05-19T09:45:05.426Z,2.10
2023-05-19T09:47:38.967Z,2.65
2023-05-19T09:50:12.773Z,1.83
2023-05-19T09:52:43.861Z,2.42
2023-05-19T09:55:14.768Z,2.03
2023-05-19T09:57:44.884Z,2.40
2023-05-19T10:00:17.649Z,1.90
2023-05-19T10:02:48.168Z,2.17
2023-05-19T10:05:21.309Z,1.83
2023-05-19T10:10:22.939Z,1.98
2023-05-19T10:12:53.126Z,2.10
2023-05-19T10:15:23.417Z,1.55
2023-05-19T10:17:53.615Z,2.05
2023-05-19T10:20:26.231Z,2.40
2023-05-19T10:22:56.233Z,2.00
2023-05-19T10:25:26.197Z,1.90
2023-05-19T10:27:58.210Z,1.80
2023-05-19T10:30:29.632Z,1.73
2023-05-19T10:33:00.580Z,2.83
2023-05-19T10:35:45.389Z,1.80
2023-05-19T10:38:23.525Z,2.00
2023-05-19T10:40:56.645Z,1.30
2023-05-19T10:45:56.301Z,1.63
2023-05-19T10:48:26.497Z,1.77
2023-05-19T10:50:59.403Z,2.20
2023-05-19T10:53:33.508Z,1.33
2023-05-19T10:56:04.503Z,1.40
2023-05-19T10:58:42.034Z,1.42
2023-05-19T11:01:12.831Z,1.10
2023-05-19T11:03:50.061Z,1.30
2023-05-19T11:06:22.842Z,1.38
2023-05-19T11:08:55.565Z,1.20
2023-05-19T11:11:25.429Z,1.73
2023-05-19T11:13:55.934Z,1.50
2023-05-19T11:16:32.800Z,1.50
2023-05-19T11:19:03.272Z,1.75
2023-05-19T11:21:50.704Z,1.40
2023-05-19T11:24:50.468Z,1.45
2023-05-19T11:27:20.867Z,1.92
2023-05-19T11:29:51.437Z,1.85
2023-05-19T11:32:21.628Z,1.40
2023-05-19T11:34:52.470Z,1.30
2023-05-19T11:37:25.063Z,1.35
2023-05-19T11:39:55.443Z,1.40
2023-05-19T11:42:25.190Z,1.48
2023-05-19T11:44:58.504Z,1.30
2023-05-19T11:47:29.287Z,1.27
2023-05-19T11:49:59.687Z,1.50
2023-05-19T11:52:32.242Z,1.35
2023-05-19T11:55:02.963Z,1.10
2023-05-19T11:57:32.961Z,1.48
2023-05-19T12:00:09.342Z,2.08
2023-05-19T12:02:39.474Z,1.58
2023-05-19T12:05:09.725Z,1.67
2023-05-19T12:07:44.310Z,1.20
2023-05-19T12:10:14.935Z,1.40
2023-05-19T12:12:45.393Z,1.13
2023-05-19T12:15:16.976Z,1.40
2023-05-19T12:17:46.950Z,1.50
2023-05-19T12:20:16.780Z,1.42
2023-05-19T12:22:49.516Z,1.13
2023-05-19T12:25:19.865Z,1.30
2023-05-19T12:27:50.134Z,1.27
2023-05-19T12:30:19.997Z,1.13
2023-05-19T12:32:52.146Z,1.20
2023-05-19T12:35:23.575Z,1.50
2023-05-19T12:37:56.062Z,1.55
2023-05-19T12:40:26.601Z,1.00
2023-05-19T12:42:59.505Z,1.13
2023-05-19T12:45:30.033Z,1.20
2023-05-19T12:48:00.116Z,1.30
2023-05-19T12:50:32.983Z,1.58
2023-05-19T12:53:05.942Z,1.85
2023-05-19T12:55:42.058Z,1.23
2023-05-19T12:58:12.473Z,1.35
2023-05-19T13:00:47.615Z,1.33
2023-05-19T13:03:18.609Z,1.20
2023-05-19T13:05:49.595Z,1.40
2023-05-19T13:08:24.184Z,1.33
2023-05-19T13:10:54.561Z,1.58
2023-05-19T13:13:24.571Z,1.60
2023-05-19T13:15:54.354Z,1.48
2023-05-19T13:18:24.994Z,1.33
2023-05-19T13:20:54.976Z,1.50
2023-05-19T13:23:27.616Z,2.03
2023-05-19T13:25:57.378Z,1.27
2023-05-19T13:28:27.436Z,1.35
2023-05-19T13:30:57.292Z,1.25
2023-05-19T13:33:27.348Z,1.23
2023-05-19T13:35:57.111Z,1.35
2023-05-19T13:38:30.819Z,1.50
2023-05-19T13:41:00.626Z,1.45
2023-05-19T13:43:30.798Z,1.77
2023-05-19T13:46:00.607Z,1.00
2023-05-19T13:48:30.766Z,1.50
2023-05-19T13:51:00.576Z,1.20
2023-05-19T13:53:35.034Z,1.50
2023-05-19T13:56:08.408Z,2.10
2023-05-19T13:58:38.182Z,1.60
2023-05-19T14:01:08.036Z,1.23
2023-05-19T14:03:38.137Z,1.77
2023-05-19T14:06:08.388Z,1.33
2023-05-19T14:08:41.700Z,1.50
2023-05-19T14:11:11.471Z,1.90
2023-05-19T14:13:43.312Z,1.85
2023-05-19T14:16:13.168Z,1.63
2023-05-19T14:18:42.985Z,1.70
2023-05-19T14:21:12.806Z,1.73
2023-05-19T14:23:45.443Z,1.75
2023-05-19T14:26:15.224Z,1.80
2023-05-19T14:28:45.084Z,2.00
2023-05-19T14:31:14.935Z,1.83
2023-05-19T14:33:44.944Z,1.95
2023-05-19T14:36:14.838Z,2.60
2023-05-19T14:38:47.517Z,1.98
2023-05-19T14:41:17.281Z,2.05
2023-05-19T14:43:48.841Z,1.80
2023-05-19T14:46:18.699Z,1.75
2023-05-19T14:48:48.509Z,2.10
2023-05-19T14:51:18.331Z,1.67
2023-05-19T14:53:50.954Z,2.15
2023-05-19T14:56:22.338Z,2.20
2023-05-19T14:58:52.085Z,1.98
2023-05-19T15:01:22.086Z,1.80
2023-05-19T15:03:51.931Z,1.90
2023-05-19T15:06:22.411Z,1.90
2023-05-19T15:08:54.790Z,2.05
2023-05-19T15:11:24.609Z,1.70
2023-05-19T15:13:54.416Z,1.85
2023-05-19T15:16:24.204Z,1.80
2023-05-19T15:18:54.384Z,2.35
2023-05-19T15:21:24.297Z,1.83
2023-05-19T15:23:56.627Z,2.17
2023-05-19T15:26:29.037Z,2.03
2023-05-19T15:31:29.215Z,1.58
2023-05-19T15:33:58.991Z,1.80
2023-05-19T15:36:28.952Z,1.80
2023-05-19T15:39:01.562Z,2.45
2023-05-19T15:41:31.386Z,1.70
2023-05-19T15:44:02.626Z,1.77
2023-05-19T15:46:32.699Z,2.13
2023-05-19T15:49:02.509Z,1.98
2023-05-19T15:51:32.281Z,1.73
2023-05-19T15:54:04.657Z,1.83
2023-05-19T15:56:34.523Z,1.80
2023-05-19T16:02:07.287Z,1.92
2023-05-19T16:04:37.969Z,2.00
2023-05-19T16:07:07.999Z,2.05
2023-05-19T16:09:40.426Z,1.92
2023-05-19T16:12:10.602Z,2.22
2023-05-19T16:14:40.456Z,2.22
2023-05-19T16:17:11.821Z,2.17
2023-05-19T16:19:44.133Z,1.63
2023-05-19T16:22:13.974Z,2.10
2023-05-19T16:24:46.354Z,2.20
2023-05-19T16:27:16.167Z,2.13
2023-05-19T16:29:45.971Z,1.67
2023-05-19T16:32:16.095Z,2.55
2023-05-19T16:34:46.085Z,1.63
2023-05-19T16:37:15.910Z,2.03
2023-05-19T16:39:48.598Z,2.13
2023-05-19T16:42:18.425Z,1.85
2023-05-19T16:44:48.512Z,2.17
2023-05-19T16:47:18.286Z,1.88
2023-05-19T16:49:48.312Z,2.33
2023-05-19T16:52:18.148Z,1.80
2023-05-19T16:54:50.529Z,2.13
2023-05-19T16:57:20.343Z,2.35
2023-05-19T16:59:50.353Z,2.20
2023-05-19T17:02:20.159Z,1.90
2023-05-19T17:04:50.166Z,1.67
2023-05-19T17:07:20.400Z,2.28
2023-05-19T17:09:55.222Z,2.88
2023-05-19T17:12:25.941Z,2.05
2023-05-19T17:14:55.808Z,1.80
2023-05-19T17:17:25.799Z,2.08
2023-05-19T17:19:55.608Z,2.25
2023-05-19T17:22:25.637Z,2.35
2023-05-19T17:24:58.088Z,1.90
2023-05-19T17:27:27.948Z,2.42
2023-05-19T17:29:57.988Z,2.33
2023-05-19T17:32:29.509Z,2.15
2023-05-19T17:34:59.450Z,1.88
2023-05-19T17:37:29.256Z,2.00
2023-05-19T17:40:01.661Z,1.80
2023-05-19T17:42:31.931Z,1.95
2023-05-19T17:45:02.159Z,2.13
2023-05-19T17:47:32.025Z,2.17
2023-05-19T17:50:01.981Z,1.98
2023-05-19T17:52:33.116Z,2.30
2023-05-19T17:55:05.963Z,2.20
2023-05-19T17:57:36.321Z,2.25
2023-05-19T18:00:06.668Z,2.10
2023-05-19T18:02:36.941Z,2.35
2023-05-19T18:05:07.357Z,1.90
2023-05-19T18:07:40.496Z,2.20
2023-05-19T18:12:42.644Z,1.88
2023-05-19T18:15:13.147Z,2.15
2023-05-19T18:17:45.139Z,1.92
2023-05-19T18:20:15.556Z,2.05
2023-05-19T18:22:45.344Z,2.45
2023-05-19T18:25:15.144Z,1.80
2023-05-19T18:27:47.702Z,2.20
2023-05-19T18:30:17.775Z,2.10
2023-05-19T18:32:47.637Z,2.10
2023-05-19T18:35:17.422Z,2.28
2023-05-19T18:37:47.150Z,1.98
2023-05-19T18:40:16.990Z,2.50
2023-05-19T18:42:49.556Z,2.30
2023-05-19T18:45:19.440Z,2.65
2023-05-19T18:47:49.352Z,2.47
2023-05-19T18:50:19.201Z,1.85
2023-05-19T18:52:49.384Z,2.20
2023-05-19T18:55:19.199Z,2.88
2023-05-19T18:57:51.677Z,1.95
2023-05-19T19:00:21.795Z,1.80
2023-05-19T19:02:51.649Z,1.92
2023-05-19T19:05:21.513Z,2.35
2023-05-19T19:07:52.877Z,2.13
2023-05-19T19:10:22.735Z,1.95
2023-05-19T19:12:55.468Z,1.88
2023-05-19T19:15:25.898Z,2.60
2023-05-19T19:17:56.057Z,2.40
2023-05-19T19:20:25.903Z,1.73
2023-05-19T19:22:55.860Z,2.10
2023-05-19T19:25:25.651Z,2.10
2023-05-19T19:27:58.294Z,2.10
2023-05-19T19:30:28.143Z,1.98
2023-05-19T19:32:59.620Z,2.08
2023-05-19T19:35:29.490Z,2.30
2023-05-19T19:37:59.640Z,2.20
2023-05-19T19:40:29.540Z,2.35
2023-05-19T19:43:01.844Z,1.95
2023-05-19T19:45:32.409Z,1.80
2023-05-19T19:48:02.464Z,2.00
2023-05-19T19:50:32.763Z,2.33
2023-05-19T19:53:02.652Z,3.05
2023-05-19T19:55:33.517Z,2.25
2023-05-19T19:58:05.911Z,2.20
2023-05-19T20:00:35.806Z,2.13
2023-05-19T20:03:06.107Z,2.50
2023-05-19T20:05:36.203Z,1.88
2023-05-19T20:08:06.019Z,2.72
2023-05-19T20:10:35.939Z,2.92
2023-05-19T20:13:08.809Z,2.72
2023-05-19T20:15:38.588Z,2.03
2023-05-19T20:18:08.627Z,2.15
2023-05-19T20:20:38.642Z,2.10
2023-05-19T20:23:08.699Z,2.53
2023-05-19T20:25:54.440Z,2.22
2023-05-19T20:28:35.656Z,2.05
2023-05-19T20:31:05.784Z,2.65
2023-05-19T20:33:38.608Z,2.83
2023-05-19T20:36:08.962Z,2.33
2023-05-19T20:38:38.709Z,2.60
2023-05-19T20:41:08.550Z,2.58
2023-05-19T20:43:40.906Z,2.13
2023-05-19T20:46:10.777Z,2.72
2023-05-19T20:48:40.782Z,3.25
2023-05-19T20:51:10.548Z,2.88
2023-05-19T20:53:40.522Z,2.60
2023-05-19T20:56:10.749Z,2.95
2023-05-19T20:58:43.115Z,3.08
2023-05-19T21:01:13.107Z,3.08
2023-05-19T21:03:43.039Z,3.35
2023-05-19T21:06:12.891Z,3.10
2023-05-19T21:08:42.904Z,3.05
2023-05-19T21:11:12.672Z,2.97
2023-05-19T21:13:45.029Z,3.40
2023-05-19T21:16:15.084Z,3.72
2023-05-19T21:18:45.019Z,3.08
2023-05-19T21:21:14.794Z,3.47
2023-05-19T21:23:44.761Z,2.58
2023-05-19T21:26:14.514Z,3.03
2023-05-19T21:28:47.256Z,3.25
2023-05-19T21:31:17.071Z,3.25
2023-05-19T21:33:47.010Z,3.03
2023-05-19T21:36:17.210Z,2.80
2023-05-19T21:38:47.315Z,3.60
2023-05-19T21:41:17.096Z,3.17
2023-05-19T21:43:49.627Z,3.03
2023-05-19T21:46:19.420Z,3.30
2023-05-19T21:48:49.276Z,3.38
2023-05-19T21:51:19.068Z,2.83
2023-05-19T21:53:49.167Z,3.13
2023-05-19T21:56:19.257Z,3.20
2023-05-19T21:58:52.232Z,3.47
2023-05-19T22:01:22.697Z,3.63
2023-05-19T22:03:52.550Z,3.15
2023-05-19T22:06:22.401Z,3.58
2023-05-19T22:08:52.154Z,3.08
2023-05-19T22:11:22.103Z,3.97
2023-05-19T22:13:54.909Z,3.60
2023-05-19T22:16:24.817Z,3.45
2023-05-19T22:18:55.188Z,3.25
2023-05-19T22:21:25.157Z,3.55
2023-05-19T22:23:54.987Z,3.28
2023-05-19T22:26:24.886Z,3.70
2023-05-19T22:28:57.854Z,4.05
2023-05-19T22:31:27.872Z,3.88
2023-05-19T22:33:57.767Z,4.20
2023-05-19T22:36:27.580Z,3.92
2023-05-19T22:38:57.407Z,3.58
2023-05-19T22:41:27.396Z,3.80
2023-05-19T22:43:59.889Z,3.78
2023-05-19T22:46:29.898Z,3.42
2023-05-19T22:48:59.834Z,3.88
2023-05-19T22:51:29.615Z,3.65
2023-05-19T22:53:59.703Z,4.10
2023-05-19T22:56:29.679Z,3.83
2023-05-19T22:59:02.062Z,3.67
2023-05-19T23:01:32.053Z,4.38
2023-05-19T23:04:01.946Z,3.58
2023-05-19T23:06:32.121Z,4.10
2023-05-19T23:09:03.455Z,4.00
2023-05-19T23:11:33.390Z,3.65
2023-05-19T23:14:05.844Z,3.95
2023-05-19T23:16:35.675Z,4.22
2023-05-19T23:19:05.585Z,4.55
2023-05-19T23:21:35.438Z,4.50
2023-05-19T23:24:05.816Z,4.65
2023-05-19T23:26:35.668Z,3.53
2023-05-19T23:29:08.069Z,4.93
2023-05-19T23:31:37.844Z,4.05
2023-05-19T23:34:07.615Z,3.70
2023-05-19T23:36:37.754Z,3.88
2023-05-19T23:39:07.582Z,4.30
2023-05-19T23:41:37.610Z,4.35
2023-05-19T23:44:10.898Z,4.45
2023-05-19T23:46:41.008Z,4.72
2023-05-19T23:49:10.751Z,5.50
2023-05-19T23:51:40.936Z,5.07
2023-05-19T23:54:10.696Z,4.50
2023-05-19T23:56:40.493Z,4.88
2023-05-19T23:59:12.850Z,4.97
